Time;durP1;ratioP1;P1;durP2;ratioP2;P2;SDS_P1;SDS_P2;PMS_P1;PMS_P2;Temp;Humidity;BMP_temperature;BMP_pressure;BME280_temperature;BME280_humidity;BME280_pressure;Samples;Min_cycle;Max_cycle;Signal;HPM_P1;HPM_P2
2023/12/19 00:02:04;;;;;;;12.40;5.80;;;7.10;99.70;;;;;;6123071;23;20018;-67
2023/12/19 00:04:33;;;;;;;14.20;7.05;;;7.00;99.50;;;;;;6121830;23;20057;-66
2023/12/19 00:06:58;;;;;;;12.40;6.53;;;7.10;99.60;;;;;;6122329;23;20002;-66
2023/12/19 00:09:24;;;;;;;12.90;6.72;;;7.10;99.50;;;;;;6121999;23;20084;-67
2023/12/19 00:11:49;;;;;;;9.60;5.03;;;7.10;99.50;;;;;;6121984;23;20009;-66
2023/12/19 00:14:15;;;;;;;11.43;6.15;;;7.20;99.60;;;;;;6121210;23;20009;-66
2023/12/19 00:16:40;;;;;;;16.92;8.25;;;7.20;99.50;;;;;;6121698;23;20006;-67
2023/12/19 00:19:08;;;;;;;12.90;7.00;;;7.10;99.50;;;;;;6121713;23;20021;-66
2023/12/19 00:21:35;;;;;;;12.43;6.40;;;7.10;99.60;;;;;;6119964;23;20680;-66
2023/12/19 00:24:00;;;;;;;13.00;6.68;;;7.20;99.70;;;;;;6121557;23;20010;-66
2023/12/19 00:26:26;;;;;;;10.85;6.15;;;7.20;99.60;;;;;;6121251;23;20334;-67
2023/12/19 00:28:52;;;;;;;10.15;5.47;;;7.20;99.60;;;;;;6121740;23;20458;-67
2023/12/19 00:31:21;;;;;;;16.48;8.63;;;7.10;99.70;;;;;;6121449;23;20330;-65
2023/12/19 00:33:47;;;;;;;15.20;7.82;;;7.20;99.70;;;;;;6120604;23;20002;-67
2023/12/19 00:36:20;;;;;;;11.73;6.03;;;7.20;99.70;;;;;;6122642;23;20517;-66
2023/12/19 00:38:46;;;;;;;19.27;9.50;;;7.20;99.80;;;;;;6121453;23;20407;-67
2023/12/19 00:41:11;;;;;;;17.00;8.35;;;7.10;99.70;;;;;;6122040;23;20002;-66
2023/12/19 00:43:37;;;;;;;15.23;8.18;;;7.20;99.80;;;;;;6121238;23;20006;-64
2023/12/19 00:46:02;;;;;;;14.18;7.35;;;7.20;99.80;;;;;;6121892;23;20082;-67
2023/12/19 00:48:28;;;;;;;16.13;8.18;;;7.20;99.80;;;;;;6121041;23;20138;-66
2023/12/19 00:50:53;;;;;;;16.25;7.03;;;7.20;99.80;;;;;;6121281;23;20013;-66
2023/12/19 00:53:19;;;;;;;12.68;6.55;;;7.20;99.90;;;;;;6122491;23;20312;-67
2023/12/19 00:55:44;;;;;;;11.23;6.10;;;7.20;99.90;;;;;;6121168;23;20065;-67
2023/12/19 00:58:10;;;;;;;11.15;5.43;;;7.20;99.90;;;;;;6096710;23;20013;-65
2023/12/19 01:00:36;;;;;;;10.88;5.25;;;7.20;99.90;;;;;;6119928;23;20064;-65
2023/12/19 01:03:02;;;;;;;13.25;7.32;;;7.30;99.90;;;;;;6121781;23;20006;-67
2023/12/19 01:05:28;;;;;;;14.43;7.00;;;7.20;99.90;;;;;;6095364;23;20005;-67
2023/12/19 01:07:54;;;;;;;8.95;4.80;;;7.20;99.90;;;;;;6096524;23;20105;-66
2023/12/19 01:10:20;;;;;;;14.75;7.40;;;7.20;99.90;;;;;;6094710;23;20029;-67
2023/12/19 01:12:46;;;;;;;12.32;6.20;;;7.30;99.90;;;;;;6121269;23;20097;-66
2023/12/19 01:15:12;;;;;;;17.40;7.97;;;7.20;99.90;;;;;;6122037;23;20002;-67
2023/12/19 01:17:37;;;;;;;16.33;8.55;;;7.20;99.90;;;;;;6122880;23;20389;-67
2023/12/19 01:20:03;;;;;;;10.50;5.75;;;7.30;99.90;;;;;;6121103;23;20071;-67
2023/12/19 01:22:28;;;;;;;13.10;7.38;;;7.30;99.90;;;;;;6122750;23;20005;-67
2023/12/19 01:24:54;;;;;;;15.20;8.10;;;7.30;99.90;;;;;;6121297;23;20002;-68
2023/12/19 01:27:20;;;;;;;14.32;7.18;;;7.30;99.90;;;;;;6122271;23;20073;-67
2023/12/19 01:29:45;;;;;;;14.77;7.55;;;7.30;99.90;;;;;;6120580;23;20018;-67
2023/12/19 01:32:11;;;;;;;14.38;7.15;;;7.30;99.90;;;;;;6095440;23;20012;-65
2023/12/19 01:34:36;;;;;;;10.20;5.13;;;7.30;99.90;;;;;;6121241;23;20077;-66
2023/12/19 01:37:02;;;;;;;11.13;5.05;;;7.30;99.90;;;;;;6121732;23;20006;-67
2023/12/19 01:39:27;;;;;;;11.65;6.10;;;7.40;99.90;;;;;;6121362;23;20006;-64
2023/12/19 01:41:53;;;;;;;9.60;5.05;;;7.40;99.90;;;;;;6121172;23;20009;-67
2023/12/19 01:44:19;;;;;;;11.20;5.57;;;7.40;99.90;;;;;;6121394;23;20010;-66
2023/12/19 01:46:48;;;;;;;11.32;5.55;;;7.40;99.90;;;;;;6121316;23;19998;-66
2023/12/19 01:49:14;;;;;;;16.20;8.30;;;7.40;99.90;;;;;;6121833;23;20032;-66
2023/12/19 01:51:40;;;;;;;24.48;12.45;;;7.50;99.90;;;;;;6120729;23;19998;-67
2023/12/19 01:54:07;;;;;;;16.08;8.68;;;7.40;99.90;;;;;;6120864;23;20013;-67
2023/12/19 01:56:33;;;;;;;16.00;6.65;;;7.40;99.90;;;;;;6121468;23;20006;-66
2023/12/19 01:59:00;;;;;;;15.32;8.05;;;7.40;99.90;;;;;;6121937;23;20077;-66
2023/12/19 02:01:27;;;;;;;14.48;7.00;;;7.40;99.90;;;;;;6120535;23;20088;-64
2023/12/19 02:03:52;;;;;;;12.27;6.32;;;7.40;99.90;;;;;;6119474;23;20081;-65
2023/12/19 02:06:19;;;;;;;20.35;10.13;;;7.40;99.90;;;;;;6120463;23;20081;-66
2023/12/19 02:08:45;;;;;;;15.98;8.90;;;7.40;99.90;;;;;;6120883;23;20006;-66
2023/12/19 02:11:11;;;;;;;15.02;7.32;;;7.40;99.90;;;;;;6121041;23;20378;-67
2023/12/19 02:13:37;;;;;;;13.43;6.80;;;7.50;99.90;;;;;;6120855;23;20041;-67
2023/12/19 02:16:04;;;;;;;14.32;7.50;;;7.50;99.90;;;;;;6121597;23;20449;-66
2023/12/19 02:18:29;;;;;;;13.00;7.13;;;7.50;99.90;;;;;;6094874;23;20052;-65
2023/12/19 02:20:55;;;;;;;14.18;7.57;;;7.50;99.90;;;;;;6120912;23;19998;-66
2023/12/19 02:23:21;;;;;;;14.80;7.20;;;7.50;99.90;;;;;;6094262;23;20037;-65
2023/12/19 02:25:48;;;;;;;14.00;7.45;;;7.50;99.90;;;;;;6121242;23;20005;-67
2023/12/19 02:28:13;;;;;;;14.18;6.60;;;7.50;99.90;;;;;;6090103;23;20133;-65
2023/12/19 02:30:39;;;;;;;15.18;8.02;;;7.50;99.90;;;;;;6089777;23;20608;-67
2023/12/19 02:33:05;;;;;;;15.70;8.27;;;7.50;99.90;;;;;;6092378;23;20417;-66
2023/12/19 02:35:31;;;;;;;12.05;6.15;;;7.50;99.90;;;;;;6089321;23;20346;-66
2023/12/19 02:37:57;;;;;;;10.98;5.70;;;7.50;99.90;;;;;;6090030;23;20069;-66
2023/12/19 02:40:25;;;;;;;11.65;6.07;;;7.50;99.90;;;;;;6091453;23;20431;-63
2023/12/19 02:42:51;;;;;;;16.80;8.50;;;7.60;99.90;;;;;;6091908;23;20340;-66
2023/12/19 02:45:17;;;;;;;17.17;8.32;;;7.60;99.90;;;;;;6091493;23;20011;-66
2023/12/19 02:47:43;;;;;;;13.30;7.47;;;7.50;99.90;;;;;;6090521;23;20014;-65
2023/12/19 02:50:08;;;;;;;13.18;6.35;;;7.60;99.90;;;;;;6089208;23;20010;-66
2023/12/19 02:52:34;;;;;;;10.05;5.55;;;7.60;99.90;;;;;;6090307;23;20003;-65
2023/12/19 02:54:59;;;;;;;11.50;6.40;;;7.60;99.90;;;;;;6091192;23;20011;-66
2023/12/19 02:57:25;;;;;;;16.27;8.60;;;7.60;99.90;;;;;;6091697;23;20432;-66
2023/12/19 02:59:51;;;;;;;13.95;7.28;;;7.60;99.90;;;;;;6091099;23;20002;-64
2023/12/19 03:02:16;;;;;;;13.23;7.25;;;7.60;99.90;;;;;;6091984;23;20013;-66
2023/12/19 03:04:42;;;;;;;12.50;6.22;;;7.60;99.90;;;;;;6091273;23;20006;-66
2023/12/19 03:07:09;;;;;;;17.58;7.35;;;7.60;99.90;;;;;;6092098;23;20492;-65
2023/12/19 03:09:35;;;;;;;12.93;7.10;;;7.60;99.90;;;;;;6090456;23;20005;-65
2023/12/19 03:12:03;;;;;;;13.57;7.38;;;7.60;99.90;;;;;;6091428;23;20002;-68
2023/12/19 03:14:30;;;;;;;17.98;8.70;;;7.60;99.90;;;;;;6091725;23;20411;-65
2023/12/19 03:16:55;;;;;;;13.63;7.68;;;7.60;99.90;;;;;;6091663;23;20432;-66
2023/12/19 03:19:21;;;;;;;13.52;7.05;;;7.60;99.90;;;;;;6091520;23;20137;-65
2023/12/19 03:21:47;;;;;;;18.30;9.52;;;7.60;99.90;;;;;;6089805;23;20014;-68
2023/12/19 03:24:12;;;;;;;15.13;7.93;;;7.60;99.90;;;;;;6091651;23;20042;-67
2023/12/19 03:26:38;;;;;;;14.32;7.13;;;7.60;99.90;;;;;;6091723;23;20447;-65
2023/12/19 03:29:03;;;;;;;15.57;7.88;;;7.60;99.90;;;;;;6109737;23;20017;-68
2023/12/19 03:31:29;;;;;;;16.35;8.77;;;7.60;99.90;;;;;;6094088;23;20013;-66
2023/12/19 03:33:54;;;;;;;12.38;6.28;;;7.60;99.90;;;;;;6121084;23;20028;-65
2023/12/19 03:36:20;;;;;;;13.23;6.70;;;7.60;99.90;;;;;;6121238;23;20533;-66
2023/12/19 03:38:45;;;;;;;14.43;6.50;;;7.60;99.90;;;;;;6120176;23;20726;-65
2023/12/19 03:41:11;;;;;;;17.52;8.02;;;7.60;99.90;;;;;;6121253;23;20430;-66
2023/12/19 03:43:37;;;;;;;21.17;10.43;;;7.60;99.90;;;;;;6121805;23;20291;-66
2023/12/19 03:46:04;;;;;;;13.70;6.88;;;7.60;99.90;;;;;;6095963;23;20595;-67
2023/12/19 03:48:30;;;;;;;19.25;9.23;;;7.60;99.90;;;;;;6121481;23;20457;-67
2023/12/19 03:50:56;;;;;;;17.60;8.70;;;7.60;99.90;;;;;;6120266;23;20021;-67
2023/12/19 03:53:22;;;;;;;17.15;8.77;;;7.60;99.90;;;;;;6120958;23;20453;-66
2023/12/19 03:55:47;;;;;;;15.00;7.57;;;7.60;99.90;;;;;;6120697;23;20006;-66
2023/12/19 03:58:13;;;;;;;15.25;7.65;;;7.60;99.90;;;;;;6120826;23;20106;-68
2023/12/19 04:00:39;;;;;;;16.17;7.25;;;7.60;99.90;;;;;;6119854;23;20006;-66
2023/12/19 04:03:04;;;;;;;10.98;5.65;;;7.60;99.90;;;;;;6120834;23;20009;-67
2023/12/19 04:05:30;;;;;;;12.07;6.10;;;7.70;99.90;;;;;;6120421;23;20002;-66
2023/12/19 04:07:56;;;;;;;21.45;10.40;;;7.70;99.90;;;;;;6121434;23;19998;-67
2023/12/19 04:10:22;;;;;;;18.50;8.32;;;7.60;99.90;;;;;;6119386;23;20019;-66
2023/12/19 04:12:47;;;;;;;16.02;8.50;;;7.60;99.90;;;;;;6119810;23;20002;-67
2023/12/19 04:15:13;;;;;;;15.18;8.30;;;7.60;99.90;;;;;;6094859;23;20073;-66
2023/12/19 04:17:39;;;;;;;12.63;6.88;;;7.60;99.90;;;;;;6094586;23;20345;-66
2023/12/19 04:20:05;;;;;;;10.70;5.90;;;7.70;99.90;;;;;;6119397;23;20006;-67
2023/12/19 04:22:31;;;;;;;14.82;7.65;;;7.60;99.90;;;;;;6120631;23;20002;-67
2023/12/19 04:24:57;;;;;;;14.57;7.20;;;7.70;99.90;;;;;;6120673;23;20021;-66
2023/12/19 04:27:22;;;;;;;12.93;6.97;;;7.70;99.90;;;;;;6120379;23;20056;-67
2023/12/19 04:29:50;;;;;;;12.63;6.32;;;7.70;99.90;;;;;;6119690;23;20042;-66
2023/12/19 04:32:15;;;;;;;14.20;7.97;;;7.70;99.90;;;;;;6119065;23;20005;-66
2023/12/19 04:34:41;;;;;;;13.85;7.07;;;7.70;99.90;;;;;;6122000;23;20006;-67
2023/12/19 04:37:07;;;;;;;9.45;5.03;;;7.70;99.90;;;;;;6122743;23;20009;-66
2023/12/19 04:39:32;;;;;;;12.98;6.72;;;7.70;99.90;;;;;;6121783;23;20494;-66
2023/12/19 04:41:59;;;;;;;8.80;4.88;;;7.70;99.90;;;;;;6121991;23;20005;-66
2023/12/19 04:44:25;;;;;;;8.93;4.82;;;7.70;99.90;;;;;;6122177;23;20016;-67
2023/12/19 04:46:51;;;;;;;10.57;5.93;;;7.80;99.90;;;;;;6122519;23;19998;-67
2023/12/19 04:49:16;;;;;;;10.02;5.55;;;7.80;99.90;;;;;;6122160;23;20010;-65
2023/12/19 04:51:42;;;;;;;10.35;5.90;;;7.70;99.90;;;;;;6122794;23;20024;-67
2023/12/19 04:54:08;;;;;;;8.60;4.63;;;7.80;99.90;;;;;;6122536;23;20009;-67
2023/12/19 04:56:37;;;;;;;9.02;5.15;;;7.80;99.90;;;;;;6123182;23;20002;-67
2023/12/19 04:59:04;;;;;;;10.00;5.45;;;7.70;99.90;;;;;;6096654;23;20438;-66
2023/12/19 05:01:29;;;;;;;9.90;5.80;;;7.70;99.90;;;;;;6121674;23;20431;-68
2023/12/19 05:03:55;;;;;;;7.07;4.40;;;7.70;99.90;;;;;;6122240;23;20040;-67
2023/12/19 05:06:20;;;;;;;8.68;4.50;;;7.80;99.90;;;;;;6122800;23;19998;-66
2023/12/19 05:08:46;;;;;;;11.10;5.80;;;7.80;99.90;;;;;;6122127;23;20378;-67
2023/12/19 05:11:12;;;;;;;9.48;5.32;;;7.80;99.90;;;;;;6121147;23;20001;-67
2023/12/19 05:13:38;;;;;;;8.90;5.07;;;7.70;99.90;;;;;;6121884;23;20029;-66
2023/12/19 05:16:14;;;;;;;9.32;5.32;;;7.80;99.90;;;;;;6121738;23;20006;-67
2023/12/19 05:18:41;;;;;;;6.15;3.90;;;7.70;99.90;;;;;;6121152;23;20315;-65
2023/12/19 05:21:07;;;;;;;5.55;3.28;;;7.80;99.90;;;;;;6095595;23;20006;-66
2023/12/19 05:23:35;;;;;;;5.63;2.97;;;7.80;99.90;;;;;;6121800;23;20006;-66
2023/12/19 05:26:05;;;;;;;4.70;2.75;;;7.80;99.90;;;;;;6122470;23;20064;-67
2023/12/19 05:28:31;;;;;;;4.45;2.75;;;7.90;99.90;;;;;;6090950;23;20030;-67
2023/12/19 05:30:57;;;;;;;4.00;2.38;;;7.90;99.90;;;;;;6091927;23;20003;-67
2023/12/19 05:33:29;;;;;;;7.70;4.38;;;7.90;99.90;;;;;;6092023;23;20025;-66
2023/12/19 05:35:56;;;;;;;8.27;4.78;;;7.90;99.90;;;;;;6093319;23;20086;-66
2023/12/19 05:38:22;;;;;;;9.90;5.47;;;7.90;99.90;;;;;;6090861;23;20010;-67
2023/12/19 05:40:48;;;;;;;7.30;4.07;;;7.90;99.90;;;;;;6091894;23;20077;-66
2023/12/19 05:43:14;;;;;;;8.20;4.95;;;7.90;99.90;;;;;;6091061;23;20065;-66
2023/12/19 05:45:40;;;;;;;9.18;5.25;;;7.90;99.90;;;;;;6092721;23;20458;-66
2023/12/19 05:48:06;;;;;;;7.35;3.92;;;7.90;99.90;;;;;;6091634;23;20062;-66
2023/12/19 05:50:32;;;;;;;5.90;3.10;;;7.90;99.90;;;;;;6091837;23;20480;-67
2023/12/19 05:52:57;;;;;;;7.20;4.03;;;8.00;99.90;;;;;;6092586;23;20054;-66
2023/12/19 05:55:23;;;;;;;7.57;4.47;;;8.00;99.90;;;;;;6092010;23;20028;-64
2023/12/19 05:57:49;;;;;;;8.93;4.95;;;8.00;99.90;;;;;;6092259;23;20026;-66
2023/12/19 06:00:17;;;;;;;8.02;4.32;;;8.00;99.90;;;;;;6091660;23;20498;-65
2023/12/19 06:02:42;;;;;;;7.07;4.18;;;8.10;99.90;;;;;;6091639;23;20070;-67
2023/12/19 06:05:09;;;;;;;6.53;3.97;;;8.00;99.90;;;;;;6091353;23;20376;-66
2023/12/19 06:07:38;;;;;;;8.00;3.90;;;8.10;99.90;;;;;;6091982;23;20033;-67
2023/12/19 06:10:08;;;;;;;8.00;4.65;;;8.10;99.90;;;;;;6090659;23;20058;-67
2023/12/19 06:12:34;;;;;;;9.00;4.75;;;8.10;99.90;;;;;;6091859;23;20002;-65
2023/12/19 06:15:00;;;;;;;7.65;4.70;;;8.10;99.90;;;;;;6092423;23;20068;-67
2023/12/19 06:17:25;;;;;;;7.85;4.03;;;8.10;99.90;;;;;;6089942;23;20006;-66
2023/12/19 06:19:51;;;;;;;7.63;4.45;;;8.10;99.90;;;;;;6089337;23;20003;-67
2023/12/19 06:22:17;;;;;;;11.20;6.68;;;8.10;99.90;;;;;;6090471;23;20085;-67
2023/12/19 06:24:42;;;;;;;10.00;5.30;;;8.20;99.90;;;;;;6090263;23;20006;-65
2023/12/19 06:27:08;;;;;;;8.10;4.05;;;8.20;99.90;;;;;;6091621;23;20003;-65
2023/12/19 06:29:34;;;;;;;8.55;4.72;;;8.20;99.90;;;;;;6115519;23;20901;-67
2023/12/19 06:32:00;;;;;;;8.73;5.45;;;8.20;99.90;;;;;;6093844;23;20012;-67
2023/12/19 06:34:28;;;;;;;9.90;5.32;;;8.20;99.90;;;;;;6120736;23;20392;-66
2023/12/19 06:36:53;;;;;;;8.75;4.88;;;8.20;99.90;;;;;;6120817;23;20009;-67
2023/12/19 06:39:19;;;;;;;8.20;4.82;;;8.20;99.90;;;;;;6120901;23;20006;-66
2023/12/19 06:41:45;;;;;;;8.75;4.50;;;8.30;99.90;;;;;;6119783;23;20009;-67
2023/12/19 06:44:12;;;;;;;9.60;5.10;;;8.30;99.90;;;;;;6094485;23;20096;-66
2023/12/19 06:46:37;;;;;;;8.32;5.00;;;8.30;99.90;;;;;;6119782;23;20009;-66
2023/12/19 06:49:04;;;;;;;10.82;5.68;;;8.30;99.90;;;;;;6121452;23;20001;-67
2023/12/19 06:51:29;;;;;;;8.88;5.13;;;8.30;99.90;;;;;;6120214;23;19998;-67
2023/12/19 06:53:56;;;;;;;7.78;4.45;;;8.30;99.90;;;;;;6121423;23;20086;-67
2023/12/19 06:56:26;;;;;;;7.05;4.38;;;8.30;99.90;;;;;;6094861;23;19998;-67
2023/12/19 06:58:52;;;;;;;8.13;5.00;;;8.20;99.90;;;;;;6121120;23;20002;-65
2023/12/19 07:01:18;;;;;;;8.82;5.70;;;8.30;99.90;;;;;;6094511;23;20425;-67
2023/12/19 07:03:43;;;;;;;9.40;5.70;;;8.30;99.90;;;;;;6120469;23;20716;-67
2023/12/19 07:06:13;;;;;;;9.15;4.90;;;8.30;99.90;;;;;;6120209;23;20002;-67
2023/12/19 07:08:39;;;;;;;8.98;5.57;;;8.30;99.90;;;;;;6120622;23;19998;-65
2023/12/19 07:11:05;;;;;;;10.68;5.95;;;8.30;99.90;;;;;;6121047;23;20445;-66
2023/12/19 07:13:31;;;;;;;11.10;6.05;;;8.30;99.90;;;;;;6121067;23;19998;-67
2023/12/19 07:15:56;;;;;;;10.07;5.93;;;8.30;99.90;;;;;;6121387;23;20081;-67
2023/12/19 07:18:22;;;;;;;10.82;6.35;;;8.30;99.90;;;;;;6121367;23;20002;-67
2023/12/19 07:20:48;;;;;;;9.90;6.10;;;8.30;99.90;;;;;;6121010;23;20335;-67
2023/12/19 07:23:14;;;;;;;8.32;4.80;;;8.30;99.90;;;;;;6121836;23;20006;-68
2023/12/19 07:25:40;;;;;;;8.95;4.72;;;8.30;99.90;;;;;;6095307;23;20089;-67
2023/12/19 07:28:06;;;;;;;10.15;5.53;;;8.30;99.90;;;;;;6121160;23;20005;-66
2023/12/19 07:30:31;;;;;;;9.02;5.00;;;8.30;99.90;;;;;;6120624;23;20006;-66
2023/12/19 07:32:59;;;;;;;9.40;5.35;;;8.30;99.90;;;;;;6120756;23;20037;-67
2023/12/19 07:35:24;;;;;;;11.73;6.57;;;8.40;99.90;;;;;;6095591;23;20002;-67
2023/12/19 07:37:50;;;;;;;9.30;5.70;;;8.30;99.90;;;;;;6120983;23;20060;-67
2023/12/19 07:40:16;;;;;;;14.07;7.55;;;8.30;99.90;;;;;;6120307;23;19998;-66
2023/12/19 07:42:43;;;;;;;11.07;6.03;;;8.40;99.90;;;;;;6120073;23;20025;-67
2023/12/19 07:45:08;;;;;;;13.43;7.20;;;8.40;99.90;;;;;;6121494;23;20026;-66
2023/12/19 07:47:34;;;;;;;16.35;8.63;;;8.40;99.90;;;;;;6121094;23;20033;-66
2023/12/19 07:50:00;;;;;;;17.15;9.32;;;8.30;99.90;;;;;;6094773;23;20073;-65
2023/12/19 07:52:26;;;;;;;13.95;8.32;;;8.40;99.90;;;;;;6095066;23;20002;-67
2023/12/19 07:54:51;;;;;;;11.48;7.05;;;8.40;99.90;;;;;;6120209;23;20667;-67
2023/12/19 07:57:17;;;;;;;11.93;6.38;;;8.40;99.90;;;;;;6118989;23;20041;-67
2023/12/19 07:59:42;;;;;;;16.35;8.88;;;8.40;99.90;;;;;;6119875;23;20505;-67
2023/12/19 08:02:08;;;;;;;11.40;6.63;;;8.40;99.90;;;;;;6120285;23;20002;-67
2023/12/19 08:04:34;;;;;;;11.60;6.60;;;8.40;99.90;;;;;;6121370;23;20080;-67
2023/12/19 08:07:01;;;;;;;10.20;5.75;;;8.40;99.90;;;;;;6122972;23;20033;-67
2023/12/19 08:09:29;;;;;;;10.90;6.07;;;8.40;99.90;;;;;;6122412;23;20013;-67
2023/12/19 08:11:56;;;;;;;11.80;6.47;;;8.50;99.90;;;;;;6121951;23;20002;-66
2023/12/19 08:14:24;;;;;;;13.30;7.47;;;8.50;99.90;;;;;;6122370;23;20010;-67
2023/12/19 08:16:50;;;;;;;21.92;11.70;;;8.50;99.90;;;;;;6122808;23;20485;-67
2023/12/19 08:19:18;;;;;;;14.90;8.32;;;8.50;99.90;;;;;;6122982;23;20009;-66
2023/12/19 08:21:51;;;;;;;12.95;6.50;;;8.50;99.90;;;;;;6121640;23;20133;-66
2023/12/19 08:24:18;;;;;;;12.55;6.68;;;8.50;99.90;;;;;;6122691;23;20462;-67
2023/12/19 08:26:49;;;;;;;12.77;7.40;;;8.60;99.90;;;;;;6095792;23;20009;-67
2023/12/19 08:29:15;;;;;;;15.32;7.68;;;8.60;99.90;;;;;;6091759;23;20392;-67
2023/12/19 08:31:41;;;;;;;15.73;7.88;;;8.60;99.90;;;;;;6091958;23;19999;-66
2023/12/19 08:34:07;;;;;;;11.95;6.43;;;8.60;99.90;;;;;;6093835;23;20081;-67
2023/12/19 08:36:33;;;;;;;12.35;6.40;;;8.60;99.90;;;;;;6090982;23;20034;-66
2023/12/19 08:38:59;;;;;;;10.68;6.05;;;8.60;99.90;;;;;;6091969;23;20005;-67
2023/12/19 08:41:25;;;;;;;10.93;5.97;;;8.60;99.90;;;;;;6092570;23;20003;-67
2023/12/19 08:43:51;;;;;;;8.98;5.38;;;8.60;99.90;;;;;;6093509;23;20078;-66
2023/12/19 08:46:20;;;;;;;8.63;4.82;;;8.70;99.90;;;;;;6093334;23;20010;-64
2023/12/19 08:48:51;;;;;;;12.10;6.05;;;8.70;99.90;;;;;;6092561;23;20002;-66
2023/12/19 08:51:20;;;;;;;11.85;6.57;;;8.70;99.90;;;;;;6090421;23;20034;-66
2023/12/19 08:53:46;;;;;;;10.15;5.90;;;8.70;99.90;;;;;;6091927;23;20006;-67
2023/12/19 08:56:12;;;;;;;8.63;5.30;;;8.70;99.90;;;;;;6091927;23;20451;-67
2023/12/19 08:58:37;;;;;;;9.43;5.63;;;8.70;99.90;;;;;;6092439;23;20014;-67
2023/12/19 09:01:03;;;;;;;9.60;5.32;;;8.70;99.90;;;;;;6092919;23;20002;-67
2023/12/19 09:03:29;;;;;;;8.57;5.00;;;8.70;99.90;;;;;;6092520;23;20644;-67
2023/12/19 09:05:54;;;;;;;7.45;4.47;;;8.70;99.90;;;;;;6092115;23;20073;-67
2023/12/19 09:08:21;;;;;;;13.30;7.32;;;8.70;99.90;;;;;;6092722;23;19998;-67
2023/12/19 09:10:46;;;;;;;9.85;6.07;;;8.80;99.90;;;;;;6092850;23;20002;-68
2023/12/19 09:13:12;;;;;;;9.27;5.88;;;8.80;99.90;;;;;;6092786;23;20011;-67
2023/12/19 09:15:38;;;;;;;8.52;4.97;;;8.80;99.90;;;;;;6093413;23;20037;-68
2023/12/19 09:18:04;;;;;;;9.85;5.28;;;8.80;99.90;;;;;;6093392;23;20006;-66
2023/12/19 09:20:30;;;;;;;12.57;6.65;;;8.80;99.90;;;;;;6092215;23;20436;-66
2023/12/19 09:22:55;;;;;;;12.85;7.57;;;8.80;99.90;;;;;;6092884;23;20458;-66
2023/12/19 09:25:21;;;;;;;10.13;6.05;;;8.80;99.90;;;;;;6092739;23;20424;-67
2023/12/19 09:27:47;;;;;;;12.95;7.22;;;8.80;99.90;;;;;;6095910;23;20312;-66
2023/12/19 09:30:15;;;;;;;11.05;6.72;;;8.80;99.90;;;;;;6096069;23;20002;-68
2023/12/19 09:32:42;;;;;;;11.18;6.90;;;8.80;99.90;;;;;;6096112;23;20006;-64
2023/12/19 09:35:08;;;;;;;8.25;5.32;;;8.80;99.90;;;;;;6122458;23;20013;-67
2023/12/19 09:37:34;;;;;;;7.53;5.10;;;8.90;99.90;;;;;;6121958;23;20040;-66
2023/12/19 09:40:00;;;;;;;10.40;6.25;;;8.90;99.90;;;;;;6095444;23;20033;-66
2023/12/19 09:42:27;;;;;;;12.95;7.40;;;8.80;99.90;;;;;;6122264;23;20012;-67
2023/12/19 09:44:52;;;;;;;8.35;5.80;;;8.80;99.90;;;;;;6121624;23;20058;-67
2023/12/19 09:47:25;;;;;;;8.10;4.95;;;8.80;99.90;;;;;;6122544;23;20334;-67
2023/12/19 09:50:00;;;;;;;7.55;4.65;;;8.80;99.90;;;;;;6121551;23;19998;-68
2023/12/19 09:52:26;;;;;;;8.30;5.30;;;8.90;99.90;;;;;;6122030;23;20002;-67
2023/12/19 09:54:52;;;;;;;8.95;5.63;;;8.80;99.90;;;;;;6121617;23;20009;-65
2023/12/19 09:57:19;;;;;;;8.95;5.55;;;8.80;99.90;;;;;;6122829;23;20006;-65
2023/12/19 09:59:47;;;;;;;5.85;4.00;;;8.80;99.90;;;;;;6122112;23;20573;-67
2023/12/19 10:02:17;;;;;;;7.50;4.45;;;8.80;99.90;;;;;;6121829;23;20006;-66
2023/12/19 10:04:43;;;;;;;7.10;4.63;;;8.90;99.90;;;;;;6121387;23;20089;-66
2023/12/19 10:07:09;;;;;;;7.57;4.28;;;8.90;99.90;;;;;;6121875;23;20002;-65
2023/12/19 10:09:49;;;;;;;7.70;4.97;;;8.90;99.90;;;;;;6121271;23;20372;-64
2023/12/19 10:12:16;;;;;;;5.65;3.97;;;8.90;99.90;;;;;;6122041;23;20032;-66
2023/12/19 10:14:46;;;;;;;8.73;5.40;;;8.90;99.90;;;;;;6121661;23;20006;-67
2023/12/19 10:17:15;;;;;;;7.85;4.53;;;8.90;99.90;;;;;;6121663;23;20006;-67
2023/12/19 10:19:40;;;;;;;6.75;4.40;;;8.90;99.90;;;;;;6121253;23;20013;-67
2023/12/19 10:22:07;;;;;;;5.13;3.50;;;8.90;99.90;;;;;;6121958;23;20006;-67
2023/12/19 10:24:33;;;;;;;7.53;4.70;;;8.90;99.90;;;;;;6121959;23;20002;-66
2023/12/19 10:27:00;;;;;;;7.35;4.47;;;8.90;99.90;;;;;;6121044;23;20002;-67
2023/12/19 10:29:26;;;;;;;5.22;3.28;;;9.00;99.90;;;;;;6119642;23;20005;-66
2023/12/19 10:31:52;;;;;;;7.57;4.80;;;9.00;99.90;;;;;;6121111;23;20009;-66
2023/12/19 10:34:18;;;;;;;4.88;2.90;;;9.00;99.90;;;;;;6096152;23;20010;-68
2023/12/19 10:36:44;;;;;;;7.03;4.45;;;9.00;99.90;;;;;;6121559;23;20006;-67
2023/12/19 10:39:11;;;;;;;6.32;3.85;;;9.00;99.90;;;;;;6121892;23;20013;-66
2023/12/19 10:41:38;;;;;;;4.70;3.55;;;9.00;99.90;;;;;;6121507;23;20013;-67
2023/12/19 10:44:04;;;;;;;6.53;3.85;;;9.00;99.90;;;;;;6120964;23;20010;-67
2023/12/19 10:46:33;;;;;;;5.68;3.72;;;9.00;99.90;;;;;;6095964;23;20016;-67
2023/12/19 10:49:02;;;;;;;6.80;4.47;;;9.00;99.90;;;;;;6121446;23;20006;-66
2023/12/19 10:51:51;;;;;;;5.93;3.67;;;9.00;99.90;;;;;;6121353;23;20073;-67
2023/12/19 10:54:18;;;;;;;8.30;4.93;;;9.00;99.90;;;;;;6121813;23;20400;-67
2023/12/19 10:57:17;;;;;;;6.95;4.40;;;9.00;99.90;;;;;;6121590;23;20002;-64
2023/12/19 10:59:58;;;;;;;6.68;4.45;;;9.00;99.90;;;;;;6033261;23;20009;-66
2023/12/19 11:03:08;;;;;;;4.82;3.33;;;9.10;99.90;;;;;;6122940;23;20382;-65
2023/12/19 11:05:47;;;;;;;5.88;3.80;;;9.10;99.90;;;;;;6054465;23;20010;-65
2023/12/19 11:08:15;;;;;;;5.78;4.10;;;9.10;99.90;;;;;;6121205;23;20034;-65
2023/12/19 11:10:45;;;;;;;10.45;6.32;;;9.10;99.90;;;;;;6120677;23;20334;-66
2023/12/19 11:13:12;;;;;;;8.82;5.10;;;9.00;99.90;;;;;;6122882;23;20061;-66
2023/12/19 11:15:46;;;;;;;8.40;5.53;;;9.00;99.90;;;;;;6121964;23;20002;-64
2023/12/19 11:18:21;;;;;;;7.03;4.63;;;9.00;99.90;;;;;;6121988;23;20082;-66
2023/12/19 11:20:58;;;;;;;5.47;3.83;;;9.00;99.90;;;;;;6094703;23;20006;-66
2023/12/19 11:23:46;;;;;;;5.20;3.53;;;9.00;99.90;;;;;;6121540;23;20457;-67
2023/12/19 11:26:37;;;;;;;7.03;3.72;;;9.00;99.90;;;;;;6121749;23;20082;-65
2023/12/19 11:29:02;;;;;;;3.58;2.58;;;9.00;99.90;;;;;;6120787;23;20033;-65
2023/12/19 11:31:29;;;;;;;4.20;2.90;;;9.10;99.90;;;;;;6120923;23;20018;-65
2023/12/19 11:33:58;;;;;;;6.43;3.70;;;9.10;99.90;;;;;;6120600;23;20005;-66
2023/12/19 11:36:24;;;;;;;4.78;3.38;;;9.10;99.90;;;;;;6095795;23;20018;-66
2023/12/19 11:38:51;;;;;;;4.95;3.35;;;9.10;99.90;;;;;;6119658;23;20032;-66
2023/12/19 11:41:38;;;;;;;6.20;4.07;;;9.10;99.90;;;;;;6094853;23;20584;-65
2023/12/19 11:44:04;;;;;;;6.30;3.83;;;9.10;99.90;;;;;;6120977;23;20054;-66
2023/12/19 11:46:29;;;;;;;7.43;3.70;;;9.10;99.90;;;;;;6121307;23;20006;-65
2023/12/19 11:48:55;;;;;;;4.18;3.10;;;9.20;99.90;;;;;;6121409;23;20033;-66
2023/12/19 11:51:44;;;;;;;4.00;2.90;;;9.20;99.90;;;;;;6095041;23;20002;-66
2023/12/19 11:54:12;;;;;;;4.53;2.83;;;9.20;99.90;;;;;;6095783;23;20190;-66
2023/12/19 11:56:39;;;;;;;4.88;2.90;;;9.20;99.90;;;;;;6121478;23;20443;-66
2023/12/19 11:59:05;;;;;;;4.80;3.00;;;9.20;99.90;;;;;;6095225;23;20093;-65
2023/12/19 12:01:41;;;;;;;4.30;2.63;;;9.20;99.90;;;;;;6120860;23;20036;-65
2023/12/19 12:04:07;;;;;;;5.50;3.00;;;9.20;99.90;;;;;;6121469;23;19998;-66
2023/12/19 12:06:33;;;;;;;3.78;2.50;;;9.20;99.90;;;;;;6121605;23;20045;-65
2023/12/19 12:08:59;;;;;;;5.50;3.50;;;9.20;99.90;;;;;;6121501;23;19998;-66
2023/12/19 12:11:26;;;;;;;3.53;2.38;;;9.20;99.90;;;;;;6120970;23;20011;-66
2023/12/19 12:14:02;;;;;;;2.97;2.13;;;9.20;99.90;;;;;;6121663;23;19999;-66
2023/12/19 12:16:37;;;;;;;5.80;3.55;;;9.20;99.90;;;;;;6121225;23;20017;-65
2023/12/19 12:19:14;;;;;;;5.00;3.15;;;9.20;99.90;;;;;;6121390;23;20002;-65
2023/12/19 12:21:44;;;;;;;5.65;4.20;;;9.20;99.90;;;;;;6121235;23;20024;-65
2023/12/19 12:24:16;;;;;;;4.22;2.67;;;9.20;99.90;;;;;;6120888;23;20003;-65
2023/12/19 12:26:42;;;;;;;3.95;2.60;;;9.20;99.90;;;;;;6121821;23;19998;-66
2023/12/19 12:29:07;;;;;;;4.63;2.97;;;9.20;99.90;;;;;;6090644;23;20707;-65
2023/12/19 12:31:33;;;;;;;3.72;2.60;;;9.20;99.90;;;;;;6091883;23;20025;-67
2023/12/19 12:34:00;;;;;;;3.80;2.60;;;9.20;99.90;;;;;;6092114;23;20611;-65
2023/12/19 12:36:26;;;;;;;4.18;2.97;;;9.10;99.90;;;;;;6092128;23;20009;-66
2023/12/19 12:38:55;;;;;;;4.50;2.95;;;9.10;99.90;;;;;;6092090;23;20002;-67
2023/12/19 12:41:22;;;;;;;4.72;3.60;;;9.10;99.90;;;;;;6090092;23;20775;-64
2023/12/19 12:43:51;;;;;;;3.85;2.80;;;9.10;99.90;;;;;;6092005;23;20193;-66
2023/12/19 12:46:19;;;;;;;2.85;2.05;;;9.10;99.90;;;;;;6091911;23;20002;-65
2023/12/19 12:49:01;;;;;;;2.90;2.10;;;9.20;99.90;;;;;;6092139;23;20003;-66
2023/12/19 12:51:27;;;;;;;3.25;2.33;;;9.20;99.90;;;;;;6092737;23;20013;-64